Main page
METAR-TAF:

METAR-TAF

Airports :

London Biggin Hill Airport

London Biggin Hill, England

latitude: 51-19N, longitude: 000-02E, elevation: 183 m

Current weather observation

The report was made 24 minutes ago, at 08:50 UTC
Wind 8 kt from the West, varying between West/Southwest and West/Northwest
Temperature 6°C
Humidity 81%
Pressure 1034 hPa
Visibility 10 km or more
no clouds below 1500 m and no cumulonimbus

METAR: EGKB 260850Z 28008KT 240V300 CAVOK 06/03 Q1034

Time: 09:14 (09:14 UTC)

Forecast

The report was made 1 hour and 17 minutes ago, at 07:57 UTC
Forecast valid from 26 at 09 UTC to 26 at 18 UTC
Wind 7 kt from the Northwest
Visibility 10 km or more
Scattered clouds at a height of 4000 ft

TAF: EGKB 260757Z 2609/2618 32007KT 9999 SCT040

Weather observations and forecasts of more than 4000 airports (METAR and TAF reports).

The available stations are represented by yellow and red dots on the map.

Hover mouse over dot to see the name of the station.

Then click to see weather observations and forecasts.

To change the map : click on the green buttons with a black cross to zoom in, on the green button with a dash to zoom out, or on the green arrows for adjacent maps.


METAR-TAF: